Latest Weather Observations for Sellicks Hill

IDS60901

Issued at 7:11 pm CST Monday 1 June 2020 (issued every 10 minutes, with the page automatically refreshed every 10 minutes)

About weather observations | Map of Adelaide area stations | Latest observations for Adelaide area | Other Formats
Station Details ID: 023886 Name: MOUNT TERRIBLE RADAR Lat: -35.33 Lon: 138.50 Height: 385.7 m
Data from the previous 72 hours. | See also: Recent months at Sellicks Hill
Date/Time
CST
Temp
°C
App
Temp
°C
Dew
Point
°C
Rel
Hum
%
Delta-T
°C
Wind Press
QNH
hPa
Press
MSL
hPa
Rain since
9am
mm
Dir  Spd
km/h
Gust
km/h
Spd
kts
Gust
kts
01/07:00pm - - - - - WSW 7 13 4 7 - - -
01/06:30pm - - - - - WSW 6 15 3 8 - - -
01/06:00pm - - - - - WSW 7 19 4 10 - - -
01/05:30pm - - - - - SW 9 15 5 8 - - -
01/05:00pm - - - - - SW 9 22 5 12 - - -
01/04:30pm - - - - - W 7 20 4 11 - - -
01/04:00pm - - - - - WSW 9 19 5 10 - - -
01/03:30pm - - - - - WSW 9 17 5 9 - - -
01/03:00pm - - - - - WSW 13 28 7 15 - - -
01/02:30pm - - - - - WSW 7 19 4 10 - - -
01/02:00pm - - - - - WSW 11 20 6 11 - - -
01/01:30pm - - - - - SW 9 20 5 11 - - -
01/01:00pm - - - - - SW 9 22 5 12 - - -
01/12:30pm - - - - - WSW 13 28 7 15 - - -
01/12:00pm - - - - - W 9 26 5 14 - - -
01/11:30am - - - - - W 11 26 6 14 - - -
01/11:00am - - - - - W 7 17 4 9 - - -
01/10:30am - - - - - WSW 7 19 4 10 - - -
01/10:00am - - - - - W 9 24 5 13 - - -
01/09:30am - - - - - W 9 20 5 11 - - -
01/09:00am - - - - - WSW 9 15 5 8 - - -
01/08:30am - - - - - WSW 11 26 6 14 - - -
01/08:00am - - - - - WSW 11 32 6 17 - - -
01/07:30am - - - - - SW 11 20 6 11 - - -
01/07:00am - - - - - WSW 13 39 7 21 - - -
01/06:30am - - - - - WSW 11 24 6 13 - - -
01/06:00am - - - - - WSW 11 20 6 11 - - -
01/05:30am - - - - - WSW 11 26 6 14 - - -
01/05:00am - - - - - WSW 11 20 6 11 - - -
01/04:30am - - - - - SW 13 28 7 15 - - -
01/04:00am - - - - - WSW 13 37 7 20 - - -
01/03:30am - - - - - SW 15 26 8 14 - - -
01/03:00am - - - - - WSW 11 22 6 12 - - -
01/02:30am - - - - - WSW 13 32 7 17 - - -
01/02:00am - - - - - WSW 13 35 7 19 - - -
01/01:30am - - - - - WSW 15 28 8 15 - - -
01/01:00am - - - - - WSW 13 37 7 20 - - -
01/12:30am - - - - - WSW 13 28 7 15 - - -
01/12:00am - - - - - WSW 17 37 9 20 - - -
 
Date/Time
CST
Temp
°C
App
Temp
°C
Dew
Point
°C
Rel
Hum
%
Delta-T
°C
Wind Press
QNH
hPa
Press
MSL
hPa
Rain since
9am
mm
Dir  Spd
km/h
Gust
km/h
Spd
kts
Gust
kts
31/11:30pm - - - - - W 19 39 10 21 - - -
31/11:00pm - - - - - W 17 37 9 20 - - -
31/10:30pm - - - - - W 17 46 9 25 - - -
31/10:00pm - - - - - WNW 24 46 13 25 - - -
31/09:30pm - - - - - NW 32 54 17 29 - - -
31/09:00pm - - - - - NW 32 63 17 34 - - -
31/08:30pm - - - - - NW 33 59 18 32 - - -
31/08:00pm - - - - - NNW 30 56 16 30 - - -
31/07:31pm - - - - - NNW 30 52 16 28 - - -
31/07:30pm - - - - - NNW 30 48 16 26 - - -
31/07:01pm - - - - - NW 28 46 15 25 - - -
31/07:00pm - - - - - NW 30 46 16 25 - - -
31/06:31pm - - - - - NNW 28 48 15 26 - - -
31/06:30pm - - - - - NNW 28 46 15 25 - - -
31/06:00pm - - - - - NW 26 43 14 23 - - -
31/05:30pm - - - - - NW 28 48 15 26 - - -
31/05:19pm - - - - - NW 28 54 15 29 - - -
31/05:00pm - - - - - NW 26 46 14 25 - - -
31/04:30pm - - - - - NW 24 35 13 19 - - -
31/04:00pm - - - - - NNW 22 41 12 22 - - -
31/03:30pm - - - - - NNW 24 43 13 23 - - -
31/03:00pm - - - - - NNW 24 43 13 23 - - -
31/02:30pm - - - - - NNW 22 43 12 23 - - -
31/02:00pm - - - - - NW 20 37 11 20 - - -
31/01:30pm - - - - - NW 19 33 10 18 - - -
31/01:00pm - - - - - NNW 20 33 11 18 - - -
31/12:30pm - - - - - NNW 22 39 12 21 - - -
31/12:00pm - - - - - NW 15 32 8 17 - - -
31/11:30am - - - - - NNW 9 20 5 11 - - -
31/11:00am - - - - - NW 11 24 6 13 - - -
31/10:30am - - - - - NW 13 24 7 13 - - -
31/10:00am - - - - - NW 11 20 6 11 - - -
31/09:30am - - - - - NW 13 26 7 14 - - -
31/09:00am - - - - - NW 13 37 7 20 - - -
31/08:30am - - - - - WNW 7 15 4 8 - - -
31/08:00am - - - - - WNW 9 20 5 11 - - -
31/07:30am - - - - - NW 7 19 4 10 - - -
31/07:00am - - - - - NW 9 19 5 10 - - -
31/06:30am - - - - - NW 9 20 5 11 - - -
31/06:00am - - - - - WNW 7 17 4 9 - - -
31/05:30am - - - - - NW 11 22 6 12 - - -
31/05:00am - - - - - NW 9 20 5 11 - - -
31/04:30am - - - - - NW 7 19 4 10 - - -
31/04:00am - - - - - NW 7 15 4 8 - - -
31/03:30am - - - - - NW 7 15 4 8 - - -
31/03:00am - - - - - WNW 7 17 4 9 - - -
31/02:30am - - - - - NW 9 24 5 13 - - -
31/02:00am - - - - - NW 9 22 5 12 - - -
31/01:30am - - - - - NW 11 22 6 12 - - -
31/01:00am - - - - - NW 9 19 5 10 - - -
31/12:30am - - - - - NW 9 17 5 9 - - -
31/12:00am - - - - - NW 11 24 6 13 - - -
 
Date/Time
CST
Temp
°C
App
Temp
°C
Dew
Point
°C
Rel
Hum
%
Delta-T
°C
Wind Press
QNH
hPa
Press
MSL
hPa
Rain since
9am
mm
Dir  Spd
km/h
Gust
km/h
Spd
kts
Gust
kts
30/11:30pm - - - - - NW 7 15 4 8 - - -
30/11:00pm - - - - - WNW 9 19 5 10 - - -
30/10:30pm - - - - - NW 9 24 5 13 - - -
30/10:00pm - - - - - WNW 15 24 8 13 - - -
30/09:30pm - - - - - NW 13 28 7 15 - - -
30/09:00pm - - - - - NW 15 37 8 20 - - -
30/08:30pm - - - - - NW 22 39 12 21 - - -
30/08:00pm - - - - - NW 28 50 15 27 - - -
30/07:30pm - - - - - NW 32 52 17 28 - - -
30/07:14pm - - - - - NNW 28 46 15 25 - - -
30/07:00pm - - - - - NNW 24 39 13 21 - - -
30/06:30pm - - - - - NW 28 57 15 31 - - -
30/06:00pm - - - - - NNW 30 52 16 28 - - -
30/05:43pm - - - - - NNW 28 52 15 28 - - -
30/05:30pm - - - - - NNW 28 44 15 24 - - -
30/05:00pm - - - - - NNW 28 44 15 24 - - -
30/04:30pm - - - - - NNW 26 37 14 20 - - -
30/04:00pm - - - - - NNW 22 39 12 21 - - -
30/03:30pm - - - - - NNW 24 44 13 24 - - -
30/03:00pm - - - - - NNW 28 46 15 25 - - -
30/02:30pm - - - - - NNW 28 50 15 27 - - -
30/02:08pm - - - - - NNW 30 50 16 27 - - -
30/02:00pm - - - - - NNW 30 48 16 26 - - -
30/01:35pm - - - - - NNW 28 50 15 27 - - -
30/01:30pm - - - - - NNW 26 48 14 26 - - -
30/01:10pm - - - - - NNW 28 46 15 25 - - -
30/01:00pm - - - - - NNW 28 44 15 24 - - -
30/12:30pm - - - - - NNW 24 46 13 25 - - -
30/12:00pm - - - - - NNW 30 48 16 26 - - -
30/11:30am - - - - - NNW 32 52 17 28 - - -
30/11:07am - - - - - NNW 30 54 16 29 - - -
30/11:00am - - - - - NNW 30 46 16 25 - - -
30/10:42am - - - - - NNW 28 50 15 27 - - -
30/10:30am - - - - - NNW 26 57 14 31 - - -
30/10:24am - - - - - NNW 28 57 15 31 - - -
30/10:00am - - - - - NNW 26 43 14 23 - - -
30/09:30am - - - - - N 26 41 14 22 - - -
30/09:00am - - - - - N 26 52 14 28 - - -
30/08:30am - - - - - N 24 43 13 23 - - -
30/08:00am - - - - - NNW 20 32 11 17 - - -
30/07:30am - - - - - N 24 43 13 23 - - -
30/07:00am - - - - - N 22 35 12 19 - - -
30/06:30am - - - - - NNW 20 35 11 19 - - -
30/06:00am - - - - - NNW 19 30 10 16 - - -
30/05:30am - - - - - NNW 17 26 9 14 - - -
30/05:00am - - - - - NNW 17 28 9 15 - - -
30/04:30am - - - - - N 17 28 9 15 - - -
30/04:00am - - - - - NNW 15 24 8 13 - - -
30/03:30am - - - - - NNW 15 24 8 13 - - -
30/03:00am - - - - - NNW 17 24 9 13 - - -
30/02:30am - - - - - NNW 17 28 9 15 - - -
30/02:00am - - - - - N 17 28 9 15 - - -
30/01:30am - - - - - N 17 28 9 15 - - -
30/01:00am - - - - - NNW 17 28 9 15 - - -
30/12:30am - - - - - NNW 15 24 8 13 - - -
30/12:00am - - - - - N 15 28 8 15 - - -
 
Date/Time
CST
Temp
°C
App
Temp
°C
Dew
Point
°C
Rel
Hum
%
Delta-T
°C
Wind Press
QNH
hPa
Press
MSL
hPa
Rain since
9am
mm
Dir  Spd
km/h
Gust
km/h
Spd
kts
Gust
kts
29/11:30pm - - - - - N 15 28 8 15 - - -
29/11:00pm - - - - - N 17 24 9 13 - - -
29/10:30pm - - - - - N 19 32 10 17 - - -
29/10:00pm - - - - - N 17 35 9 19 - - -
29/09:30pm - - - - - N 17 28 9 15 - - -
29/09:00pm - - - - - N 15 28 8 15 - - -
29/08:30pm - - - - - N 15 24 8 13 - - -
29/08:00pm - - - - - N 15 24 8 13 - - -
29/07:30pm - - - - - N 15 26 8 14 - - -

Latest Capital City Observations: Canberra | Sydney | Melbourne | Brisbane | Adelaide | Perth | Hobart | Darwin

Other formats

Comma delimited format used in spreadsheet applications
http://www.bom.gov.au/fwo/IDS60901/IDS60901.95679.axf

JavaScript Object Notation format (JSON) in row-major order
http://www.bom.gov.au/fwo/IDS60901/IDS60901.95679.json

Data quality

Most of these data are generated automatically and are frequently updated. Quality checks on data are not normally performed. It is possible for incorrect values to appear. Refer to information at About Latest Weather Observations and please check the disclaimer before using these data.